Denali Natl Park, AK

2:13 AM AKDT on April 25, 2018 (GMT -0800)
Yanert View 2350ft | | Change Station

Elev 2350 ft 63.65 °N, 148.77 °W | Updated 15 seconds ago

Overcast
Overcast
31.6 °F
Feels Like 32 °F
N
0.4
Wind Variable Wind from SSW
Gusts 2.5 mph

Today
High -- | Low -- °F
--% Chance of Precip.
Yesterday
High -- | Low -- °F
Precip. -- in
Pressure 29.70 in
Visibility 10.0 miles
Clouds Mostly Cloudy 4600 ft
Mostly Cloudy 5500 ft
Overcast 7000 ft
Windchill 32 °F
Dew Point 25 °F
Humidity 76%
Rainfall 0.00 in
Snow Depth Not available.
5:49 AM 9:57 PM
Waxing Gibbous, 77% visible
METAR PAIN 250956Z AUTO VRB05KT 10SM -SN BKN046 BKN055 OVC070 01/M03 A2962 RMK AO2 RAB19E49UPB30E31SNB49 SLP055 P0000 T00111028 FZRANO
Pressure 29.70 in
Visibility 10.0 miles
Clouds Mostly Cloudy 4600 ft
Mostly Cloudy 5500 ft
Overcast 7000 ft
Windchill 32 °F
Dew Point 25 °F
Humidity 76%
Rainfall 0.00 in
Snow Depth Not available.
5:49 AM 9:57 PM
Waxing Gibbous, 77% visible
METAR PAIN 250956Z AUTO VRB05KT 10SM -SN BKN046 BKN055 OVC070 01/M03 A2962 RMK AO2 RAB19E49UPB30E31SNB49 SLP055 P0000 T00111028 FZRANO

Get Severe Weather Alerts

Thanks for signing up!

Be on the lookout for a verification email in your inbox.

You'll start receiving the daily forecast at 6 AM.

×

10-Day Weather Forecast

Almanac

Astronomy

Apr. 25, 2018 Rise Set
Actual Time
Civil Twilight
Nautical Twilight
Astronomical Twilight
Moon
Length of Visible Light
Length of Day
Tomorrow will be .
, % of the Moon is Illuminated

Today's Extremes

State Highs State Lows

Community

WunderPhotos

Category 6

Welcome to Category 6. This is the collective home for Weather Underground's featured writeups by Dr. Jeff Masters (right), Bob Henson (left), Chris Burt, and other regular contributors.

Nearby

Air Quality

  Air Quality AQ Index Pollutant
Not available.

Snow Depth

Station Depth Elevation

Earthquake Activity

City Distance Mag. Time & Date
Minimum magnitude displayed is 2.5.

Coastal Water Temperatures

Place Temperature

Stations

Nearby Weather Stations

Station Location Temp. Windchill Dew Point Humidity Wind Precip. Elev Updated Type
                   

Watches & Warnings

There are currently no watches in effect.